sensor_id;sensor_type;location;lat;lon;timestamp;pressure;altitude;pressure_sealevel;temperature;humidity
73457;BME280;61691;53.072;6.582;2024-02-23T00:02:07;98191.94;;;6.00;86.26
73457;BME280;61691;53.072;6.582;2024-02-23T00:04:33;98191.81;;;5.94;86.02
73457;BME280;61691;53.072;6.582;2024-02-23T00:07:00;98204.56;;;6.05;86.33
73457;BME280;61691;53.072;6.582;2024-02-23T00:09:29;98191.16;;;5.92;85.85
73457;BME280;61691;53.072;6.582;2024-02-23T00:11:56;98185.88;;;5.83;85.84
73457;BME280;61691;53.072;6.582;2024-02-23T00:14:23;98215.63;;;5.92;86.23
73457;BME280;61691;53.072;6.582;2024-02-23T00:16:50;98208.44;;;5.78;86.00
73457;BME280;61691;53.072;6.582;2024-02-23T00:19:17;98257.50;;;6.02;85.93
73457;BME280;61691;53.072;6.582;2024-02-23T00:21:46;98253.91;;;5.95;86.14
73457;BME280;61691;53.072;6.582;2024-02-23T00:24:17;98267.69;;;6.05;86.05
73457;BME280;61691;53.072;6.582;2024-02-23T00:26:43;98279.34;;;6.02;86.36
73457;BME280;61691;53.072;6.582;2024-02-23T00:29:11;98283.47;;;6.05;85.95
73457;BME280;61691;53.072;6.582;2024-02-23T00:31:38;98279.84;;;6.06;86.38
73457;BME280;61691;53.072;6.582;2024-02-23T00:34:07;98283.78;;;6.02;85.91
73457;BME280;61691;53.072;6.582;2024-02-23T00:36:40;98260.31;;;5.84;85.87
73457;BME280;61691;53.072;6.582;2024-02-23T00:39:07;98290.09;;;5.93;85.04
73457;BME280;61691;53.072;6.582;2024-02-23T00:41:35;98301.72;;;5.82;85.47
73457;BME280;61691;53.072;6.582;2024-02-23T00:44:02;98319.31;;;5.81;85.43
73457;BME280;61691;53.072;6.582;2024-02-23T00:46:30;98349.34;;;5.87;85.58
73457;BME280;61691;53.072;6.582;2024-02-23T00:48:57;98311.09;;;5.76;85.36
73457;BME280;61691;53.072;6.582;2024-02-23T00:51:23;98316.69;;;5.65;85.30
73457;BME280;61691;53.072;6.582;2024-02-23T00:53:50;98336.06;;;5.64;85.46
73457;BME280;61691;53.072;6.582;2024-02-23T00:56:17;98333.47;;;5.56;85.56
73457;BME280;61691;53.072;6.582;2024-02-23T00:58:44;98318.00;;;5.45;85.73
73457;BME280;61691;53.072;6.582;2024-02-23T01:01:10;98358.91;;;5.48;85.82
73457;BME280;61691;53.072;6.582;2024-02-23T01:03:37;98377.09;;;5.49;85.94
73457;BME280;61691;53.072;6.582;2024-02-23T01:06:04;98384.38;;;5.55;85.86
73457;BME280;61691;53.072;6.582;2024-02-23T01:08:31;98395.38;;;5.67;85.82
73457;BME280;61691;53.072;6.582;2024-02-23T01:10:58;98401.44;;;5.67;85.90
73457;BME280;61691;53.072;6.582;2024-02-23T01:13:24;98381.72;;;5.47;85.64
73457;BME280;61691;53.072;6.582;2024-02-23T01:15:51;98388.44;;;5.50;85.77
73457;BME280;61691;53.072;6.582;2024-02-23T01:18:20;98410.00;;;5.61;85.62
73457;BME280;61691;53.072;6.582;2024-02-23T01:20:47;98403.75;;;5.54;85.64
73457;BME280;61691;53.072;6.582;2024-02-23T01:23:14;98417.34;;;5.58;85.80
73457;BME280;61691;53.072;6.582;2024-02-23T01:25:40;98417.69;;;5.55;85.79
73457;BME280;61691;53.072;6.582;2024-02-23T01:28:07;98401.75;;;5.48;85.48
73457;BME280;61691;53.072;6.582;2024-02-23T01:30:34;98398.78;;;5.43;85.71
73457;BME280;61691;53.072;6.582;2024-02-23T01:33:01;98416.19;;;5.44;86.01
73457;BME280;61691;53.072;6.582;2024-02-23T01:35:29;98420.63;;;5.43;85.67
73457;BME280;61691;53.072;6.582;2024-02-23T01:37:57;98341.22;;;4.91;85.57
73457;BME280;61691;53.072;6.582;2024-02-23T01:40:23;98422.56;;;5.41;85.93
73457;BME280;61691;53.072;6.582;2024-02-23T01:43:03;98432.78;;;5.44;86.08
73457;BME280;61691;53.072;6.582;2024-02-23T01:45:31;98399.72;;;5.18;86.29
73457;BME280;61691;53.072;6.582;2024-02-23T01:47:59;98438.84;;;5.45;86.37
73457;BME280;61691;53.072;6.582;2024-02-23T01:50:27;98442.47;;;5.44;86.10
73457;BME280;61691;53.072;6.582;2024-02-23T01:52:57;98450.69;;;5.49;86.35
73457;BME280;61691;53.072;6.582;2024-02-23T01:55:26;98425.38;;;5.40;86.32
73457;BME280;61691;53.072;6.582;2024-02-23T01:57:53;98390.84;;;5.11;86.34
73457;BME280;61691;53.072;6.582;2024-02-23T02:00:20;98439.16;;;5.42;86.72
73457;BME280;61691;53.072;6.582;2024-02-23T02:02:48;98468.59;;;5.54;86.37
73457;BME280;61691;53.072;6.582;2024-02-23T02:05:15;98451.84;;;5.47;86.79
73457;BME280;61691;53.072;6.582;2024-02-23T02:07:42;98467.47;;;5.56;86.59
73457;BME280;61691;53.072;6.582;2024-02-23T02:10:09;98463.84;;;5.57;86.88
73457;BME280;61691;53.072;6.582;2024-02-23T02:12:36;98445.59;;;5.48;86.80
73457;BME280;61691;53.072;6.582;2024-02-23T02:15:03;98483.75;;;5.68;86.96
73457;BME280;61691;53.072;6.582;2024-02-23T02:17:30;98485.88;;;5.72;87.20
73457;BME280;61691;53.072;6.582;2024-02-23T02:20:03;98491.50;;;5.77;86.99
73457;BME280;61691;53.072;6.582;2024-02-23T02:22:33;98473.38;;;5.66;86.97
73457;BME280;61691;53.072;6.582;2024-02-23T02:25:00;98496.09;;;5.83;87.11
73457;BME280;61691;53.072;6.582;2024-02-23T02:27:27;98497.75;;;5.84;87.42
73457;BME280;61691;53.072;6.582;2024-02-23T02:29:53;98490.19;;;5.81;87.28
73457;BME280;61691;53.072;6.582;2024-02-23T02:32:20;98498.78;;;5.92;87.09
73457;BME280;61691;53.072;6.582;2024-02-23T02:34:47;98477.16;;;5.72;87.34
73457;BME280;61691;53.072;6.582;2024-02-23T02:37:14;98501.59;;;5.98;86.99
73457;BME280;61691;53.072;6.582;2024-02-23T02:39:41;98508.34;;;6.01;87.00
73457;BME280;61691;53.072;6.582;2024-02-23T02:42:08;98522.47;;;6.00;86.74
73457;BME280;61691;53.072;6.582;2024-02-23T02:44:34;98525.25;;;5.98;86.64
73457;BME280;61691;53.072;6.582;2024-02-23T02:47:01;98532.16;;;5.99;86.21
73457;BME280;61691;53.072;6.582;2024-02-23T02:49:28;98526.38;;;5.96;86.23
73457;BME280;61691;53.072;6.582;2024-02-23T02:51:54;98520.44;;;5.86;85.96
73457;BME280;61691;53.072;6.582;2024-02-23T02:54:21;98521.94;;;5.88;85.84
73457;BME280;61691;53.072;6.582;2024-02-23T02:56:48;98524.41;;;5.90;85.90
73457;BME280;61691;53.072;6.582;2024-02-23T02:59:17;98537.25;;;5.93;85.88
73457;BME280;61691;53.072;6.582;2024-02-23T03:01:44;98528.38;;;5.94;85.94
73457;BME280;61691;53.072;6.582;2024-02-23T03:04:13;98530.00;;;5.95;86.07
73457;BME280;61691;53.072;6.582;2024-02-23T03:06:40;98546.78;;;6.02;85.72
73457;BME280;61691;53.072;6.582;2024-02-23T03:09:07;98502.31;;;5.74;85.46
73457;BME280;61691;53.072;6.582;2024-02-23T03:11:33;98550.91;;;6.04;85.62
73457;BME280;61691;53.072;6.582;2024-02-23T03:14:01;98553.69;;;6.03;85.45
73457;BME280;61691;53.072;6.582;2024-02-23T03:16:28;98554.66;;;6.02;85.24
73457;BME280;61691;53.072;6.582;2024-02-23T03:18:57;98567.50;;;6.05;84.69
73457;BME280;61691;53.072;6.582;2024-02-23T03:21:24;98561.25;;;5.98;84.62
73457;BME280;61691;53.072;6.582;2024-02-23T03:23:50;98574.88;;;5.93;84.89
73457;BME280;61691;53.072;6.582;2024-02-23T03:26:17;98579.31;;;5.93;84.55
73457;BME280;61691;53.072;6.582;2024-02-23T03:28:44;98576.31;;;5.88;84.27
73457;BME280;61691;53.072;6.582;2024-02-23T03:31:10;98585.50;;;5.83;84.13
73457;BME280;61691;53.072;6.582;2024-02-23T03:33:37;98562.47;;;5.77;83.49
73457;BME280;61691;53.072;6.582;2024-02-23T03:36:04;98586.28;;;5.76;83.92
73457;BME280;61691;53.072;6.582;2024-02-23T03:38:31;98578.25;;;5.77;83.90
73457;BME280;61691;53.072;6.582;2024-02-23T03:40:58;98590.41;;;5.78;83.71
73457;BME280;61691;53.072;6.582;2024-02-23T03:43:25;98527.47;;;5.35;83.59
73457;BME280;61691;53.072;6.582;2024-02-23T03:45:51;98586.41;;;5.66;83.61
73457;BME280;61691;53.072;6.582;2024-02-23T03:48:18;98597.91;;;5.65;83.58
73457;BME280;61691;53.072;6.582;2024-02-23T03:50:45;98602.69;;;5.70;83.62
73457;BME280;61691;53.072;6.582;2024-02-23T03:53:12;98586.03;;;5.53;83.26
73457;BME280;61691;53.072;6.582;2024-02-23T03:55:39;98601.16;;;5.59;83.17
73457;BME280;61691;53.072;6.582;2024-02-23T03:58:05;98604.47;;;5.61;83.02
73457;BME280;61691;53.072;6.582;2024-02-23T04:00:32;98621.88;;;5.62;83.30
73457;BME280;61691;53.072;6.582;2024-02-23T04:02:59;98629.78;;;5.62;83.10
73457;BME280;61691;53.072;6.582;2024-02-23T04:05:26;98629.78;;;5.62;82.71
73457;BME280;61691;53.072;6.582;2024-02-23T04:07:52;98629.78;;;5.62;83.06
73457;BME280;61691;53.072;6.582;2024-02-23T04:10:19;98622.81;;;5.53;82.93
73457;BME280;61691;53.072;6.582;2024-02-23T04:12:46;98621.84;;;5.54;82.95
73457;BME280;61691;53.072;6.582;2024-02-23T04:15:13;98622.97;;;5.52;82.92
73457;BME280;61691;53.072;6.582;2024-02-23T04:17:40;98637.28;;;5.57;83.05
73457;BME280;61691;53.072;6.582;2024-02-23T04:20:07;98650.47;;;5.65;83.05
73457;BME280;61691;53.072;6.582;2024-02-23T04:22:37;98651.91;;;5.60;82.40
73457;BME280;61691;53.072;6.582;2024-02-23T04:25:04;98653.06;;;5.57;82.55
73457;BME280;61691;53.072;6.582;2024-02-23T04:27:31;98669.84;;;5.64;82.48
73457;BME280;61691;53.072;6.582;2024-02-23T04:29:58;98629.16;;;5.42;82.68
73457;BME280;61691;53.072;6.582;2024-02-23T04:32:25;98660.81;;;5.67;82.40
73457;BME280;61691;53.072;6.582;2024-02-23T04:34:52;98662.63;;;5.66;82.43
73457;BME280;61691;53.072;6.582;2024-02-23T04:37:19;98684.69;;;5.73;82.66
73457;BME280;61691;53.072;6.582;2024-02-23T04:39:46;98625.06;;;5.40;82.43
73457;BME280;61691;53.072;6.582;2024-02-23T04:42:12;98681.56;;;5.70;82.34
73457;BME280;61691;53.072;6.582;2024-02-23T04:44:41;98686.81;;;5.70;82.37
73457;BME280;61691;53.072;6.582;2024-02-23T04:47:09;98697.16;;;5.71;82.24
73457;BME280;61691;53.072;6.582;2024-02-23T04:49:35;98687.25;;;5.65;82.23
73457;BME280;61691;53.072;6.582;2024-02-23T04:52:02;98691.19;;;5.61;82.41
73457;BME280;61691;53.072;6.582;2024-02-23T04:54:29;98698.09;;;5.62;82.60
73457;BME280;61691;53.072;6.582;2024-02-23T04:56:56;98693.78;;;5.53;82.99
73457;BME280;61691;53.072;6.582;2024-02-23T04:59:22;98704.00;;;5.56;83.06
73457;BME280;61691;53.072;6.582;2024-02-23T05:01:49;98690.41;;;5.43;83.41
73457;BME280;61691;53.072;6.582;2024-02-23T05:04:16;98719.75;;;5.56;83.33
73457;BME280;61691;53.072;6.582;2024-02-23T05:06:43;98722.00;;;5.51;83.40
73457;BME280;61691;53.072;6.582;2024-02-23T05:09:10;98715.41;;;5.47;83.03
73457;BME280;61691;53.072;6.582;2024-02-23T05:11:37;98712.94;;;5.45;83.15
73457;BME280;61691;53.072;6.582;2024-02-23T05:14:04;98709.78;;;5.42;83.58
73457;BME280;61691;53.072;6.582;2024-02-23T05:16:32;98725.03;;;5.38;83.33
73457;BME280;61691;53.072;6.582;2024-02-23T05:18:59;98735.19;;;5.33;83.36
73457;BME280;61691;53.072;6.582;2024-02-23T05:21:25;98705.78;;;5.12;83.44
73457;BME280;61691;53.072;6.582;2024-02-23T05:23:52;98736.09;;;5.24;83.70
73457;BME280;61691;53.072;6.582;2024-02-23T05:26:19;98730.94;;;5.15;83.64
73457;BME280;61691;53.072;6.582;2024-02-23T05:28:46;98735.88;;;5.18;83.85
73457;BME280;61691;53.072;6.582;2024-02-23T05:31:13;98715.47;;;5.12;83.62
73457;BME280;61691;53.072;6.582;2024-02-23T05:33:40;98742.84;;;5.27;83.90
73457;BME280;61691;53.072;6.582;2024-02-23T05:36:07;98719.44;;;5.16;84.02
73457;BME280;61691;53.072;6.582;2024-02-23T05:38:34;98716.81;;;5.16;84.12
73457;BME280;61691;53.072;6.582;2024-02-23T05:41:01;98739.38;;;5.26;83.86
73457;BME280;61691;53.072;6.582;2024-02-23T05:43:28;98727.03;;;5.19;84.43
73457;BME280;61691;53.072;6.582;2024-02-23T05:45:54;98728.66;;;5.20;84.06
73457;BME280;61691;53.072;6.582;2024-02-23T05:48:23;98735.88;;;5.18;84.42
73457;BME280;61691;53.072;6.582;2024-02-23T05:50:50;98748.47;;;5.32;84.42
73457;BME280;61691;53.072;6.582;2024-02-23T05:53:17;98742.59;;;5.38;84.62
73457;BME280;61691;53.072;6.582;2024-02-23T05:55:43;98755.59;;;5.39;84.64
73457;BME280;61691;53.072;6.582;2024-02-23T05:58:10;98739.28;;;5.36;85.02
73457;BME280;61691;53.072;6.582;2024-02-23T06:00:37;98742.59;;;5.38;84.76
73457;BME280;61691;53.072;6.582;2024-02-23T06:03:04;98749.19;;;5.42;84.97
73457;BME280;61691;53.072;6.582;2024-02-23T06:05:30;98731.06;;;5.31;84.64
73457;BME280;61691;53.072;6.582;2024-02-23T06:07:57;98755.81;;;5.46;85.01
73457;BME280;61691;53.072;6.582;2024-02-23T06:10:24;98754.97;;;5.45;85.01
73457;BME280;61691;53.072;6.582;2024-02-23T06:12:51;98753.41;;;5.35;84.96
73457;BME280;61691;53.072;6.582;2024-02-23T06:15:21;98745.69;;;5.33;85.01
73457;BME280;61691;53.072;6.582;2024-02-23T06:17:48;98767.22;;;5.37;85.33
73457;BME280;61691;53.072;6.582;2024-02-23T06:20:15;98750.81;;;5.17;85.24
73457;BME280;61691;53.072;6.582;2024-02-23T06:22:42;98737.91;;;5.06;85.34
73457;BME280;61691;53.072;6.582;2024-02-23T06:25:09;98769.63;;;5.13;85.77
73457;BME280;61691;53.072;6.582;2024-02-23T06:27:36;98770.94;;;5.09;85.82
73457;BME280;61691;53.072;6.582;2024-02-23T06:30:04;98740.47;;;4.98;85.92
73457;BME280;61691;53.072;6.582;2024-02-23T06:32:31;98775.81;;;5.03;85.76
73457;BME280;61691;53.072;6.582;2024-02-23T06:34:58;98784.94;;;4.99;86.17
73457;BME280;61691;53.072;6.582;2024-02-23T06:37:26;98763.63;;;4.85;86.15
73457;BME280;61691;53.072;6.582;2024-02-23T06:39:53;98800.00;;;4.97;86.16
73457;BME280;61691;53.072;6.582;2024-02-23T06:42:21;98800.69;;;4.99;86.31
73457;BME280;61691;53.072;6.582;2024-02-23T06:44:48;98797.38;;;4.97;86.38
73457;BME280;61691;53.072;6.582;2024-02-23T06:47:15;98774.59;;;4.80;86.13
73457;BME280;61691;53.072;6.582;2024-02-23T06:49:42;98798.00;;;4.91;86.43
73457;BME280;61691;53.072;6.582;2024-02-23T06:52:11;98804.91;;;4.92;86.63
73457;BME280;61691;53.072;6.582;2024-02-23T06:54:38;98793.06;;;4.88;86.56
73457;BME280;61691;53.072;6.582;2024-02-23T06:57:05;98803.94;;;4.93;86.31
73457;BME280;61691;53.072;6.582;2024-02-23T06:59:31;98804.06;;;4.92;86.41
73457;BME280;61691;53.072;6.582;2024-02-23T07:01:58;98806.63;;;5.01;86.65
73457;BME280;61691;53.072;6.582;2024-02-23T07:04:25;98753.78;;;4.69;86.62
73457;BME280;61691;53.072;6.582;2024-02-23T07:06:52;98818.88;;;5.11;86.71
73457;BME280;61691;53.072;6.582;2024-02-23T07:09:19;98804.19;;;5.18;86.58
73457;BME280;61691;53.072;6.582;2024-02-23T07:11:45;98809.09;;;5.21;86.44
73457;BME280;61691;53.072;6.582;2024-02-23T07:14:12;98808.75;;;5.16;86.31
73457;BME280;61691;53.072;6.582;2024-02-23T07:16:40;98809.19;;;5.29;86.28
73457;BME280;61691;53.072;6.582;2024-02-23T07:19:09;98785.09;;;5.16;86.39
73457;BME280;61691;53.072;6.582;2024-02-23T07:21:36;98813.19;;;5.33;86.23
73457;BME280;61691;53.072;6.582;2024-02-23T07:24:07;98821.28;;;5.39;86.38
73457;BME280;61691;53.072;6.582;2024-02-23T07:26:33;98825.03;;;5.37;86.18
73457;BME280;61691;53.072;6.582;2024-02-23T07:29:00;98816.47;;;5.35;86.15
73457;BME280;61691;53.072;6.582;2024-02-23T07:31:27;98830.44;;;5.53;86.12
73457;BME280;61691;53.072;6.582;2024-02-23T07:33:54;98835.75;;;5.61;86.10
73457;BME280;61691;53.072;6.582;2024-02-23T07:36:21;98824.34;;;5.53;85.65
73457;BME280;61691;53.072;6.582;2024-02-23T07:38:48;98841.97;;;5.60;85.70
73457;BME280;61691;53.072;6.582;2024-02-23T07:41:15;98839.22;;;5.62;85.42
73457;BME280;61691;53.072;6.582;2024-02-23T07:43:44;98847.22;;;5.60;85.34
73457;BME280;61691;53.072;6.582;2024-02-23T07:46:12;98844.91;;;5.57;85.31
73457;BME280;61691;53.072;6.582;2024-02-23T07:48:39;98831.31;;;5.44;85.08
73457;BME280;61691;53.072;6.582;2024-02-23T07:51:05;98841.22;;;5.50;85.18
73457;BME280;61691;53.072;6.582;2024-02-23T07:53:32;98829.22;;;5.48;85.13
73457;BME280;61691;53.072;6.582;2024-02-23T07:55:59;98831.31;;;5.44;85.25
73457;BME280;61691;53.072;6.582;2024-02-23T07:58:28;98830.63;;;5.60;85.41
73457;BME280;61691;53.072;6.582;2024-02-23T08:00:55;98838.66;;;5.58;85.12
73457;BME280;61691;53.072;6.582;2024-02-23T08:03:23;98849.31;;;5.74;85.10
73457;BME280;61691;53.072;6.582;2024-02-23T08:05:50;98849.25;;;5.84;85.11
73457;BME280;61691;53.072;6.582;2024-02-23T08:08:16;98835.06;;;5.77;84.82
73457;BME280;61691;53.072;6.582;2024-02-23T08:10:44;98840.53;;;5.83;84.61
73457;BME280;61691;53.072;6.582;2024-02-23T08:13:10;98854.13;;;5.97;84.75
73457;BME280;61691;53.072;6.582;2024-02-23T08:15:38;98844.50;;;5.88;84.49
73457;BME280;61691;53.072;6.582;2024-02-23T08:18:04;98841.75;;;5.89;84.10
73457;BME280;61691;53.072;6.582;2024-02-23T08:20:31;98862.69;;;5.99;84.47
73457;BME280;61691;53.072;6.582;2024-02-23T08:22:58;98862.38;;;6.02;83.96
73457;BME280;61691;53.072;6.582;2024-02-23T08:25:25;98853.44;;;5.95;84.18
73457;BME280;61691;53.072;6.582;2024-02-23T08:27:58;98863.72;;;6.06;83.84
73457;BME280;61691;53.072;6.582;2024-02-23T08:30:25;98848.03;;;5.96;83.73
73457;BME280;61691;53.072;6.582;2024-02-23T08:32:52;98855.97;;;6.04;83.76
73457;BME280;61691;53.072;6.582;2024-02-23T08:35:19;98855.34;;;6.10;83.69
73457;BME280;61691;53.072;6.582;2024-02-23T08:37:46;98855.75;;;6.15;83.77
73457;BME280;61691;53.072;6.582;2024-02-23T08:40:13;98831.47;;;6.04;83.20
73457;BME280;61691;53.072;6.582;2024-02-23T08:42:40;98845.03;;;6.17;82.99
73457;BME280;61691;53.072;6.582;2024-02-23T08:45:07;98841.81;;;6.23;83.07
73457;BME280;61691;53.072;6.582;2024-02-23T08:47:34;98842.16;;;6.28;82.66
73457;BME280;61691;53.072;6.582;2024-02-23T08:50:02;98819.25;;;6.20;82.62
73457;BME280;61691;53.072;6.582;2024-02-23T08:52:29;98814.19;;;6.27;82.48
73457;BME280;61691;53.072;6.582;2024-02-23T08:54:56;98822.31;;;6.42;82.27
73457;BME280;61691;53.072;6.582;2024-02-23T08:57:23;98811.59;;;6.35;82.05
73457;BME280;61691;53.072;6.582;2024-02-23T08:59:50;98831.38;;;6.47;81.94
73457;BME280;61691;53.072;6.582;2024-02-23T09:02:16;98795.50;;;6.38;81.93
73457;BME280;61691;53.072;6.582;2024-02-23T09:04:43;98831.75;;;6.52;81.62
73457;BME280;61691;53.072;6.582;2024-02-23T09:07:12;98790.56;;;6.35;81.52
73457;BME280;61691;53.072;6.582;2024-02-23T09:09:39;98800.97;;;6.45;81.26
73457;BME280;61691;53.072;6.582;2024-02-23T09:12:06;98814.34;;;6.59;80.83
73457;BME280;61691;53.072;6.582;2024-02-23T09:14:37;98820.63;;;6.67;81.29
73457;BME280;61691;53.072;6.582;2024-02-23T09:17:08;98795.41;;;6.56;80.69
73457;BME280;61691;53.072;6.582;2024-02-23T09:19:36;98788.84;;;6.60;80.61
73457;BME280;61691;53.072;6.582;2024-02-23T09:22:03;98791.66;;;6.67;80.62
73457;BME280;61691;53.072;6.582;2024-02-23T09:24:30;98812.97;;;6.89;80.47
73457;BME280;61691;53.072;6.582;2024-02-23T09:26:57;98825.03;;;7.08;80.50
73457;BME280;61691;53.072;6.582;2024-02-23T09:29:24;98814.00;;;7.05;79.97
73457;BME280;61691;53.072;6.582;2024-02-23T09:31:50;98816.66;;;7.13;79.53
73457;BME280;61691;53.072;6.582;2024-02-23T09:34:17;98811.84;;;7.08;78.40
73457;BME280;61691;53.072;6.582;2024-02-23T09:36:44;98801.50;;;7.07;78.77
73457;BME280;61691;53.072;6.582;2024-02-23T09:39:14;98842.81;;;7.22;77.54
73457;BME280;61691;53.072;6.582;2024-02-23T09:41:41;98817.81;;;7.18;77.88
73457;BME280;61691;53.072;6.582;2024-02-23T09:44:09;98831.94;;;7.09;76.22
73457;BME280;61691;53.072;6.582;2024-02-23T09:46:37;98834.41;;;7.11;77.07
73457;BME280;61691;53.072;6.582;2024-02-23T09:49:04;98828.63;;;7.07;77.18
73457;BME280;61691;53.072;6.582;2024-02-23T09:51:33;98857.69;;;7.31;77.59
73457;BME280;61691;53.072;6.582;2024-02-23T09:54:01;98852.09;;;7.43;77.45
73457;BME280;61691;53.072;6.582;2024-02-23T09:56:29;98852.13;;;7.51;76.94
73457;BME280;61691;53.072;6.582;2024-02-23T09:59:00;98857.88;;;7.62;76.61
73457;BME280;61691;53.072;6.582;2024-02-23T10:01:29;98847.19;;;7.64;75.53
73457;BME280;61691;53.072;6.582;2024-02-23T10:04:01;98817.19;;;7.49;75.03
73457;BME280;61691;53.072;6.582;2024-02-23T10:06:31;98829.03;;;7.69;75.01
73457;BME280;61691;53.072;6.582;2024-02-23T10:08:58;98843.88;;;7.78;74.67
73457;BME280;61691;53.072;6.582;2024-02-23T10:11:25;98787.50;;;7.47;75.28
73457;BME280;61691;53.072;6.582;2024-02-23T10:13:52;98819.16;;;7.79;74.26
73457;BME280;61691;53.072;6.582;2024-02-23T10:16:20;98839.91;;;7.82;73.62
73457;BME280;61691;53.072;6.582;2024-02-23T10:18:49;98850.66;;;7.89;74.03
73457;BME280;61691;53.072;6.582;2024-02-23T10:21:17;98844.84;;;7.93;73.29
73457;BME280;61691;53.072;6.582;2024-02-23T10:23:45;98814.88;;;7.70;73.31
73457;BME280;61691;53.072;6.582;2024-02-23T10:26:12;98861.34;;;7.95;73.33
73457;BME280;61691;53.072;6.582;2024-02-23T10:28:39;98825.09;;;7.73;73.41
73457;BME280;61691;53.072;6.582;2024-02-23T10:31:06;98869.75;;;7.99;72.90
73457;BME280;61691;53.072;6.582;2024-02-23T10:33:38;98869.59;;;7.84;72.69
73457;BME280;61691;53.072;6.582;2024-02-23T10:36:07;98881.94;;;7.84;72.57
73457;BME280;61691;53.072;6.582;2024-02-23T10:38:37;98881.47;;;7.80;72.62
73457;BME280;61691;53.072;6.582;2024-02-23T10:41:05;98875.19;;;7.65;72.44
73457;BME280;61691;53.072;6.582;2024-02-23T10:43:46;98898.28;;;7.79;72.70
73457;BME280;61691;53.072;6.582;2024-02-23T10:46:14;98881.63;;;7.62;72.63
73457;BME280;61691;53.072;6.582;2024-02-23T10:48:43;98906.19;;;7.79;72.66
73457;BME280;61691;53.072;6.582;2024-02-23T10:51:13;98893.97;;;7.70;72.27
73457;BME280;61691;53.072;6.582;2024-02-23T10:53:46;98901.41;;;7.66;72.56
73457;BME280;61691;53.072;6.582;2024-02-23T10:56:15;98893.31;;;7.60;72.24
73457;BME280;61691;53.072;6.582;2024-02-23T10:58:41;98896.13;;;7.58;71.76
73457;BME280;61691;53.072;6.582;2024-02-23T11:01:09;98876.81;;;7.50;72.03
73457;BME280;61691;53.072;6.582;2024-02-23T11:03:37;98894.94;;;7.61;72.45
73457;BME280;61691;53.072;6.582;2024-02-23T11:06:08;98868.56;;;7.45;72.16
73457;BME280;61691;53.072;6.582;2024-02-23T11:08:35;98882.09;;;7.50;72.38
73457;BME280;61691;53.072;6.582;2024-02-23T11:11:09;98921.31;;;7.61;72.18
73457;BME280;61691;53.072;6.582;2024-02-23T11:13:37;98917.53;;;7.55;72.57
73457;BME280;61691;53.072;6.582;2024-02-23T11:16:05;98911.44;;;7.55;72.68
73457;BME280;61691;53.072;6.582;2024-02-23T11:18:34;98906.66;;;7.58;72.86
73457;BME280;61691;53.072;6.582;2024-02-23T11:21:03;98882.09;;;7.42;73.06
73457;BME280;61691;53.072;6.582;2024-02-23T11:24:04;98898.56;;;7.60;73.27
73457;BME280;61691;53.072;6.582;2024-02-23T11:26:31;98914.41;;;7.60;73.61
73457;BME280;61691;53.072;6.582;2024-02-23T11:29:12;98883.06;;;7.41;73.87
73457;BME280;61691;53.072;6.582;2024-02-23T11:31:46;98918.53;;;7.62;73.81
73457;BME280;61691;53.072;6.582;2024-02-23T11:34:13;98915.22;;;7.60;74.00
73457;BME280;61691;53.072;6.582;2024-02-23T11:36:50;98920.50;;;7.60;74.07
73457;BME280;61691;53.072;6.582;2024-02-23T11:39:19;98906.16;;;7.55;73.92
73457;BME280;61691;53.072;6.582;2024-02-23T11:41:48;98922.66;;;7.57;73.84
73457;BME280;61691;53.072;6.582;2024-02-23T11:44:16;98902.84;;;7.53;74.05
73457;BME280;61691;53.072;6.582;2024-02-23T11:46:46;98898.88;;;7.41;73.96
73457;BME280;61691;53.072;6.582;2024-02-23T11:49:14;98928.56;;;7.51;74.23
73457;BME280;61691;53.072;6.582;2024-02-23T11:51:42;98929.00;;;7.38;74.53
73457;BME280;61691;53.072;6.582;2024-02-23T11:54:09;98920.63;;;7.34;74.70
73457;BME280;61691;53.072;6.582;2024-02-23T11:56:36;98902.78;;;7.20;74.84
73457;BME280;61691;53.072;6.582;2024-02-23T11:59:03;98913.38;;;7.28;74.28
73457;BME280;61691;53.072;6.582;2024-02-23T12:01:30;98914.38;;;7.35;74.81
73457;BME280;61691;53.072;6.582;2024-02-23T12:03:57;98936.47;;;7.43;74.95
73457;BME280;61691;53.072;6.582;2024-02-23T12:06:24;98930.50;;;7.41;74.97
73457;BME280;61691;53.072;6.582;2024-02-23T12:08:54;98919.28;;;7.30;74.85
73457;BME280;61691;53.072;6.582;2024-02-23T12:11:21;98908.09;;;7.28;74.85
73457;BME280;61691;53.072;6.582;2024-02-23T12:13:47;98935.97;;;7.47;75.17
73457;BME280;61691;53.072;6.582;2024-02-23T12:16:14;98925.91;;;7.43;75.28
73457;BME280;61691;53.072;6.582;2024-02-23T12:18:41;98893.38;;;7.18;74.97
73457;BME280;61691;53.072;6.582;2024-02-23T12:21:08;98907.75;;;7.31;75.04
73457;BME280;61691;53.072;6.582;2024-02-23T12:23:44;98935.78;;;7.41;75.25
73457;BME280;61691;53.072;6.582;2024-02-23T12:26:16;98949.31;;;7.54;75.22
73457;BME280;61691;53.072;6.582;2024-02-23T12:28:43;98951.13;;;7.53;75.25
73457;BME280;61691;53.072;6.582;2024-02-23T12:31:11;98930.69;;;7.47;75.09
73457;BME280;61691;53.072;6.582;2024-02-23T12:33:39;98947.66;;;7.53;75.36
73457;BME280;61691;53.072;6.582;2024-02-23T12:36:10;98938.41;;;7.41;75.13
73457;BME280;61691;53.072;6.582;2024-02-23T12:38:37;98960.84;;;7.53;75.36
73457;BME280;61691;53.072;6.582;2024-02-23T12:41:04;98953.94;;;7.44;75.22
73457;BME280;61691;53.072;6.582;2024-02-23T12:43:32;98954.25;;;7.49;75.31
73457;BME280;61691;53.072;6.582;2024-02-23T12:45:58;98943.03;;;7.38;75.55
73457;BME280;61691;53.072;6.582;2024-02-23T12:48:25;98932.16;;;7.33;75.75
73457;BME280;61691;53.072;6.582;2024-02-23T12:50:52;98943.38;;;7.44;75.40
73457;BME280;61691;53.072;6.582;2024-02-23T12:53:36;98961.50;;;7.47;76.00
73457;BME280;61691;53.072;6.582;2024-02-23T12:56:08;98968.16;;;7.59;75.59
73457;BME280;61691;53.072;6.582;2024-02-23T12:58:35;98944.84;;;7.46;75.71
73457;BME280;61691;53.072;6.582;2024-02-23T13:01:02;98949.66;;;7.51;75.56
73457;BME280;61691;53.072;6.582;2024-02-23T13:03:30;98965.69;;;7.65;76.02
73457;BME280;61691;53.072;6.582;2024-02-23T13:05:57;98945.56;;;7.56;75.76
73457;BME280;61691;53.072;6.582;2024-02-23T13:08:24;98957.94;;;7.72;75.75
73457;BME280;61691;53.072;6.582;2024-02-23T13:10:52;98892.59;;;7.33;75.89
73457;BME280;61691;53.072;6.582;2024-02-23T13:13:21;98950.34;;;7.69;75.71